Time;durP1;ratioP1;P1;durP2;ratioP2;P2;SDS_P1;SDS_P2;PMS_P1;PMS_P2;Temp;Humidity;BMP_temperature;BMP_pressure;BME280_temperature;BME280_humidity;BME280_pressure;Samples;Min_cycle;Max_cycle;Signal;HPM_P1;HPM_P2
2023/06/09 00:02:18;;;;;;;10.07;6.88;;;;;;;15.32;86.75;97442.91;10289023;28;20033;-48
2023/06/09 00:07:17;;;;;;;10.07;7.43;;;;;;;15.37;86.68;97446.28;10289034;28;20073;-47
2023/06/09 00:12:16;;;;;;;11.85;7.15;;;;;;;15.16;87.03;97435.47;10289458;28;20049;-50
2023/06/09 00:17:15;;;;;;;13.00;7.60;;;;;;;15.23;86.72;97450.09;10289242;28;20068;-51
2023/06/09 00:22:15;;;;;;;12.23;7.65;;;;;;;15.15;87.81;97457.25;10287844;28;20088;-52
2023/06/09 00:27:14;;;;;;;13.35;9.05;;;;;;;15.03;89.46;97447.94;10286444;28;20578;-50
2023/06/09 00:32:13;;;;;;;10.68;7.22;;;;;;;14.76;89.87;97454.69;10286801;28;20576;-52
2023/06/09 00:37:12;;;;;;;;;;;;;;;14.76;89.07;97438.16;10287297;28;20037;-50
2023/06/09 00:42:11;;;;;;;15.13;7.87;;;;;;;14.73;88.84;97444.31;10287127;28;19972;-51
2023/06/09 00:47:11;;;;;;;12.30;6.95;;;;;;;14.67;89.43;97444.41;10282497;28;20077;-51
2023/06/09 00:52:10;;;;;;;9.90;7.22;;;;;;;14.67;88.90;97441.81;10282047;28;20127;-50
2023/06/09 00:57:10;;;;;;;11.52;8.13;;;;;;;14.36;88.30;97387.66;10266411;28;20501;-49
2023/06/09 01:02:12;;;;;;;12.90;7.78;;;;;;;14.64;88.69;97439.28;10284386;28;20085;-52
2023/06/09 01:07:33;;;;;;;12.10;8.98;;;;;;;14.66;89.08;97442.69;10281853;28;20192;-51
2023/06/09 01:13:10;;;;;;;14.70;8.20;;;;;;;14.68;89.21;97445.25;10281693;28;20076;-52
2023/06/09 01:18:14;;;;;;;12.15;7.75;;;;;;;13.84;89.27;97304.41;10304397;28;20117;-51
2023/06/09 01:23:37;;;;;;;12.80;8.80;;;;;;;14.67;89.75;97443.56;10283238;28;20178;-52
2023/06/09 01:28:38;;;;;;;14.25;8.75;;;;;;;14.69;89.68;97429.56;10281664;28;20188;-52
2023/06/09 01:33:37;;;;;;;19.27;10.50;;;;;;;14.68;89.50;97446.13;10283851;28;20484;-51
2023/06/09 01:38:37;;;;;;;16.05;9.77;;;;;;;14.60;89.73;97427.16;10281405;28;20457;-50
2023/06/09 01:43:36;;;;;;;27.25;12.45;;;;;;;14.60;90.69;97433.25;10281868;28;20073;-50
2023/06/09 01:48:57;;;;;;;19.48;13.63;;;;;;;14.52;91.11;97443.00;10282240;28;20410;-49
2023/06/09 01:54:04;;;;;;;14.63;8.77;;;;;;;14.33;93.02;97439.91;10281659;28;20120;-47
2023/06/09 01:59:08;;;;;;;11.40;8.52;;;;;;;14.28;93.08;97446.97;10282578;28;20121;-48
2023/06/09 02:04:10;;;;;;;14.40;8.43;;;;;;;14.13;93.59;97439.47;10282232;28;20081;-51
2023/06/09 02:09:11;;;;;;;10.88;7.60;;;;;;;13.94;93.56;97429.41;10280863;28;20462;-52
2023/06/09 02:14:11;;;;;;;14.15;9.10;;;;;;;14.02;92.78;97431.84;10264775;28;20136;-52
2023/06/09 02:19:12;;;;;;;12.10;8.73;;;;;;;14.06;92.27;97445.72;10282234;28;20489;-51
2023/06/09 02:24:11;;;;;;;12.32;9.20;;;;;;;14.10;91.91;97449.97;10285247;28;20461;-50
2023/06/09 02:29:10;;;;;;;;;;;;;;;14.02;91.58;97438.81;10288398;28;20026;-51
2023/06/09 02:34:10;;;;;;;19.73;8.87;;;;;;;14.01;91.39;97445.81;10289172;28;19959;-50
2023/06/09 02:39:09;;;;;;;13.77;8.38;;;;;;;13.92;91.54;97436.41;10288086;28;20065;-50
2023/06/09 02:44:08;;;;;;;;;;;;;;;13.87;91.98;97445.22;10291067;28;20540;-48
2023/06/09 02:49:07;;;;;;;13.53;8.67;;;;;;;13.84;92.49;97440.03;10291408;28;20088;-48
2023/06/09 02:54:06;;;;;;;12.57;8.85;;;;;;;13.86;92.19;97433.91;10292493;28;20323;-50
2023/06/09 02:59:05;;;;;;;;;;;;;;;13.90;92.75;97446.00;10292797;28;20116;-50
2023/06/09 03:04:08;;;;;;;14.10;9.83;;;;;;;13.94;92.22;97447.66;10291763;28;19919;-50
2023/06/09 03:09:10;;;;;;;15.70;9.77;;;;;;;13.95;92.67;97446.75;10291495;28;20085;-50
2023/06/09 03:14:09;;;;;;;13.30;9.63;;;;;;;14.02;92.56;97444.91;10291620;28;20482;-50
2023/06/09 03:19:08;;;;;;;;;;;;;;;14.12;92.24;97450.78;10291884;28;20706;-50
2023/06/09 03:24:07;;;;;;;15.33;10.77;;;;;;;14.03;92.36;97411.84;10291024;28;19948;-50
2023/06/09 03:29:06;;;;;;;;;;;;;;;14.29;92.90;97443.50;10291374;28;20044;-49
2023/06/09 03:34:05;;;;;;;26.50;15.53;;;;;;;14.20;93.04;97428.03;10290420;28;19913;-51
2023/06/09 03:39:04;;;;;;;;;;;;;;;14.44;93.16;97441.44;10291786;28;20072;-52
2023/06/09 03:44:03;;;;;;;22.40;12.33;;;;;;;14.62;92.69;97454.09;10287629;28;19944;-51
2023/06/09 03:49:02;;;;;;;16.00;11.82;;;;;;;14.77;92.12;97445.94;10285910;28;20124;-52
2023/06/09 03:54:01;;;;;;;15.70;11.38;;;;;;;14.77;91.49;97417.22;10286165;28;20037;-50
2023/06/09 03:59:00;;;;;;;;;;;;;;;15.20;91.36;97450.19;10285309;28;20484;-51
2023/06/09 04:03:58;;;;;;;19.17;9.87;;;;;;;15.43;89.86;97446.97;10286134;28;20009;-49
2023/06/09 04:08:57;;;;;;;;;;;;;;;15.57;88.94;97449.22;10285829;28;20044;-52
2023/06/09 04:13:56;;;;;;;13.90;8.43;;;;;;;15.72;87.32;97460.22;10285776;28;20005;-51
2023/06/09 04:18:56;;;;;;;12.70;7.63;;;;;;;15.72;86.49;97458.44;10285311;28;20044;-51
2023/06/09 04:23:55;;;;;;;16.77;8.30;;;;;;;15.75;86.23;97457.50;10285731;28;20497;-51
2023/06/09 04:28:54;;;;;;;21.77;9.27;;;;;;;15.70;87.04;97464.63;10284413;28;20042;-49
2023/06/09 04:33:54;;;;;;;;;;;;;;;15.73;87.05;97456.69;10286371;28;20476;-51
2023/06/09 04:38:54;;;;;;;17.42;9.27;;;;;;;15.83;87.72;97466.03;10284368;28;19955;-49
2023/06/09 04:43:58;;;;;;;17.15;10.27;;;;;;;15.97;87.63;97463.03;10283799;28;20108;-51
2023/06/09 04:49:00;;;;;;;17.77;10.85;;;;;;;16.10;86.84;97467.06;10282679;28;20164;-51
2023/06/09 04:53:59;;;;;;;14.82;10.38;;;;;;;16.18;86.34;97472.91;10285143;28;20133;-51
2023/06/09 04:58:57;;;;;;;17.83;10.25;;;;;;;16.26;86.24;97470.97;10285182;28;20065;-48
2023/06/09 05:03:58;;;;;;;17.55;10.60;;;;;;;16.44;86.51;97471.31;10285103;28;20112;-49
2023/06/09 05:08:57;;;;;;;15.48;10.30;;;;;;;16.61;86.24;97469.06;10265441;28;20034;-50
2023/06/09 05:13:56;;;;;;;16.48;10.55;;;;;;;16.88;85.50;97464.78;10243906;28;20112;-48
2023/06/09 05:18:56;;;;;;;15.63;9.80;;;;;;;17.11;83.87;97460.59;10240745;28;20042;-50
2023/06/09 05:23:55;;;;;;;14.75;10.55;;;;;;;17.31;82.92;97458.19;10248231;28;20141;-49
2023/06/09 05:28:54;;;;;;;18.27;9.43;;;;;;;17.45;82.63;97459.47;10242394;28;20138;-51
2023/06/09 05:33:53;;;;;;;15.93;9.40;;;;;;;17.89;81.45;97465.00;10243550;28;20022;-48
2023/06/09 05:38:52;;;;;;;14.88;8.68;;;;;;;18.24;79.49;97457.66;10244101;28;20034;-50
2023/06/09 05:43:51;;;;;;;15.05;8.10;;;;;;;18.45;77.18;97448.13;10243660;28;20144;-49
2023/06/09 05:48:51;;;;;;;20.15;8.90;;;;;;;18.48;75.90;97438.34;10240774;28;20137;-49
2023/06/09 05:53:49;;;;;;;14.20;8.40;;;;;;;18.75;74.94;97448.75;10243040;28;20502;-51
2023/06/09 05:58:50;;;;;;;15.77;7.55;;;;;;;18.89;74.57;97437.69;10248348;28;20640;-51
2023/06/09 06:03:49;;;;;;;12.25;7.78;;;;;;;18.95;72.40;97454.09;10244717;28;20133;-50
2023/06/09 06:08:48;;;;;;;14.07;7.82;;;;;;;19.13;72.85;97446.38;10248274;28;20030;-49
2023/06/09 06:13:47;;;;;;;12.63;6.95;;;;;;;19.44;71.44;97446.00;10251389;28;20030;-48
2023/06/09 06:18:46;;;;;;;11.35;7.38;;;;;;;19.51;69.75;97441.31;10246536;28;20042;-51
2023/06/09 06:23:44;;;;;;;9.82;6.28;;;;;;;19.66;68.81;97445.97;10247461;28;20022;-51
2023/06/09 06:28:43;;;;;;;11.98;6.05;;;;;;;19.79;68.75;97457.69;10248147;28;20152;-52
2023/06/09 06:33:43;;;;;;;9.57;5.68;;;;;;;19.77;68.01;97432.34;10247732;28;20040;-48
2023/06/09 06:38:42;;;;;;;11.85;6.38;;;;;;;19.98;68.33;97436.69;10245686;28;20476;-52
2023/06/09 06:43:42;;;;;;;9.63;6.10;;;;;;;20.12;66.37;97430.81;10249329;28;20125;-49
2023/06/09 06:48:41;;;;;;;11.38;6.38;;;;;;;20.12;65.53;97409.72;10245416;28;20141;-51
2023/06/09 06:53:40;;;;;;;11.07;6.13;;;;;;;20.41;65.01;97434.78;10248088;28;20034;-51
2023/06/09 06:58:39;;;;;;;9.48;5.50;;;;;;;20.67;63.51;97424.81;10247557;28;20443;-52
2023/06/09 07:03:40;;;;;;;9.98;5.57;;;;;;;20.80;62.75;97417.19;10248041;28;20030;-51
2023/06/09 07:08:38;;;;;;;10.00;5.82;;;;;;;20.96;62.34;97426.06;10247933;28;20124;-52
2023/06/09 07:13:37;;;;;;;9.23;5.40;;;;;;;21.04;62.62;97418.63;10248106;28;20133;-50
2023/06/09 07:18:36;;;;;;;11.25;5.35;;;;;;;21.25;61.44;97413.28;10247465;28;20034;-50
2023/06/09 07:23:35;;;;;;;8.50;4.97;;;;;;;21.48;61.12;97405.06;10246533;28;20129;-51
2023/06/09 07:28:35;;;;;;;6.68;4.60;;;;;;;21.59;57.10;97414.19;10248606;28;20049;-52
2023/06/09 07:33:34;;;;;;;8.18;4.65;;;;;;;21.57;56.96;97389.66;10247669;28;20133;-51
2023/06/09 07:38:35;;;;;;;9.65;4.40;;;;;;;21.92;58.36;97417.75;10246915;28;20144;-51
2023/06/09 07:43:34;;;;;;;6.70;5.07;;;;;;;22.02;57.69;97417.31;10249176;28;20540;-52
2023/06/09 07:48:33;;;;;;;7.93;4.65;;;;;;;21.88;55.45;97405.66;10251449;28;20521;-52
2023/06/09 07:53:32;;;;;;;7.22;5.00;;;;;;;22.06;55.43;97418.84;10248297;28;20061;-52
2023/06/09 07:58:31;;;;;;;12.48;4.40;;;;;;;22.24;53.25;97412.56;10249263;28;20137;-52
2023/06/09 08:03:34;;;;;;;6.15;3.95;;;;;;;22.38;52.58;97414.47;10249168;28;20027;-49
2023/06/09 08:08:34;;;;;;;5.32;3.85;;;;;;;22.54;51.77;97417.16;10247805;28;20073;-51
2023/06/09 08:13:33;;;;;;;7.07;4.05;;;;;;;22.93;52.28;97411.47;10261736;28;20069;-49
2023/06/09 08:18:32;;;;;;;5.93;4.30;;;;;;;23.12;51.88;97413.06;10248763;28;20042;-51
2023/06/09 08:23:32;;;;;;;7.13;3.88;;;;;;;23.04;51.84;97412.66;10248243;28;20042;-52
2023/06/09 08:28:31;;;;;;;6.10;4.18;;;;;;;23.17;50.15;97406.56;10247433;28;20604;-52
2023/06/09 08:33:33;;;;;;;19.65;5.85;;;;;;;23.23;51.40;97406.22;10248146;28;20057;-51
2023/06/09 08:38:34;;;;;;;6.07;4.30;;;;;;;23.60;50.82;97404.06;10247339;28;20058;-52
2023/06/09 08:43:33;;;;;;;6.97;4.00;;;;;;;23.79;49.87;97395.03;10246148;28;20065;-50
2023/06/09 08:48:37;;;;;;;11.07;3.97;;;;;;;23.82;51.26;97397.53;10243425;28;20137;-52
2023/06/09 08:53:36;;;;;;;5.72;3.80;;;;;;;23.74;50.72;97392.66;10244134;28;20062;-51
2023/06/09 08:58:36;;;;;;;8.07;4.68;;;;;;;23.77;50.11;97384.56;10243796;28;20026;-53
2023/06/09 09:03:35;;;;;;;8.10;4.47;;;;;;;24.01;50.57;97384.00;10245917;28;20076;-50
2023/06/09 09:08:34;;;;;;;8.60;4.38;;;;;;;22.92;49.91;97162.84;10243030;28;20041;-52
2023/06/09 09:13:33;;;;;;;9.15;4.63;;;;;;;24.17;48.93;97384.75;10243681;28;20041;-50
2023/06/09 09:18:34;;;;;;;6.72;4.43;;;;;;;24.42;49.02;97384.09;10243113;28;20030;-50
2023/06/09 09:23:33;;;;;;;13.63;5.15;;;;;;;24.54;47.56;97371.84;10244338;28;20105;-51
2023/06/09 09:28:40;;;;;;;7.35;4.70;;;;;;;24.26;45.96;97339.16;10243180;28;20038;-52
2023/06/09 09:33:46;;;;;;;6.47;4.10;;;;;;;24.49;44.48;97358.03;10248410;28;20081;-52
2023/06/09 09:38:45;;;;;;;6.60;4.50;;;;;;;24.58;44.26;97354.78;10252039;28;20069;-52
2023/06/09 09:43:46;;;;;;;6.60;4.10;;;;;;;24.85;45.03;97349.50;10251370;28;20077;-51
2023/06/09 09:48:47;;;;;;;7.28;4.43;;;;;;;24.96;45.75;97354.13;10249831;28;20484;-49
2023/06/09 09:53:46;;;;;;;7.63;4.25;;;;;;;25.14;47.30;97349.41;10251119;28;20129;-52
2023/06/09 09:58:50;;;;;;;6.68;4.22;;;;;;;25.36;45.41;97342.66;10249240;28;20077;-52
2023/06/09 10:03:49;;;;;;;8.55;4.55;;;;;;;25.40;44.77;97338.84;10250499;28;20510;-50
2023/06/09 10:08:48;;;;;;;6.20;3.95;;;;;;;25.36;44.66;97310.78;10249228;28;20118;-50
2023/06/09 10:13:48;;;;;;;6.82;4.20;;;;;;;25.56;44.53;97342.19;10251039;28;20124;-49
2023/06/09 10:18:48;;;;;;;6.38;4.03;;;;;;;25.56;43.49;97330.72;10247989;28;20125;-51
2023/06/09 10:23:47;;;;;;;8.80;4.38;;;;;;;25.38;44.07;97324.81;10248628;28;20080;-50
2023/06/09 10:28:46;;;;;;;5.93;4.05;;;;;;;25.43;44.28;97331.50;10247081;28;20105;-50
2023/06/09 10:33:46;;;;;;;5.35;4.22;;;;;;;25.47;45.16;97346.28;10240956;28;20046;-52
2023/06/09 10:38:54;;;;;;;5.45;4.05;;;;;;;25.71;43.41;97327.00;10246085;28;20524;-49
2023/06/09 10:44:50;;;;;;;5.50;4.40;;;;;;;25.94;42.50;97339.53;10249898;28;20514;-53
2023/06/09 10:49:51;;;;;;;8.77;4.00;;;;;;;26.10;41.76;97347.28;10276154;28;20164;-49
2023/06/09 10:55:12;;;;;;;5.95;3.83;;;;;;;25.91;42.21;97341.56;10262604;28;20073;-50
2023/06/09 11:00:13;;;;;;;8.07;4.47;;;;;;;26.09;41.28;97334.97;10244347;28;20486;-51
2023/06/09 11:05:12;;;;;;;5.07;3.88;;;;;;;26.17;41.70;97335.25;10251415;28;20077;-52
2023/06/09 11:10:11;;;;;;;4.88;3.72;;;;;;;25.98;41.34;97334.88;10251029;28;20066;-50
2023/06/09 11:15:10;;;;;;;6.78;4.20;;;;;;;25.78;42.61;97330.09;10250871;28;20030;-52
2023/06/09 11:20:09;;;;;;;6.03;3.83;;;;;;;25.78;44.26;97327.44;10250878;28;20025;-51
2023/06/09 11:25:28;;;;;;;5.80;3.70;;;;;;;25.66;44.97;97339.75;10251715;28;20567;-50
2023/06/09 11:30:29;;;;;;;5.50;4.03;;;;;;;25.63;46.08;97332.84;10248661;28;20066;-52
2023/06/09 11:35:28;;;;;;;6.40;4.18;;;;;;;25.57;46.54;97346.53;10250124;28;20053;-53
2023/06/09 11:40:32;;;;;;;10.52;4.43;;;;;;;25.53;46.26;97340.56;10250502;28;20014;-52
2023/06/09 11:45:32;;;;;;;7.15;4.60;;;;;;;25.26;45.92;97340.63;10246687;28;20058;-51
2023/06/09 11:50:42;;;;;;;10.82;4.60;;;;;;;24.89;47.66;97348.41;10245199;28;20162;-52
2023/06/09 11:55:42;;;;;;;8.00;4.32;;;;;;;24.21;50.09;97348.31;10245813;28;20073;-52
2023/06/09 12:00:43;;;;;;;11.20;6.13;;;;;;;23.97;55.44;97350.66;10246121;28;20065;-51
2023/06/09 12:05:46;;;;;;;11.45;5.40;;;;;;;23.98;60.63;97342.63;10245402;28;20066;-53
2023/06/09 12:10:45;;;;;;;11.50;6.90;;;;;;;24.56;69.17;97332.81;10243937;28;20124;-49
2023/06/09 12:15:51;;;;;;;10.65;5.85;;;;;;;24.82;67.81;97309.03;10245354;28;20088;-49
2023/06/09 12:20:51;;;;;;;8.55;5.88;;;;;;;25.41;68.31;97313.97;10244366;28;20054;-51
2023/06/09 12:25:51;;;;;;;14.02;5.82;;;;;;;25.94;65.90;97301.47;10244707;28;20127;-51
2023/06/09 12:30:53;;;;;;;7.60;6.15;;;;;;;26.29;62.14;97296.31;10245045;28;20077;-53
2023/06/09 12:36:03;;;;;;;10.60;5.90;;;;;;;26.06;61.47;97209.34;10244777;28;20117;-52
2023/06/09 12:41:06;;;;;;;8.13;5.78;;;;;;;26.78;60.18;97291.88;10244840;28;20118;-52
2023/06/09 12:46:05;;;;;;;7.43;5.03;;;;;;;27.23;58.01;97297.41;10243839;28;20066;-51
2023/06/09 12:51:06;;;;;;;12.65;4.88;;;;;;;27.65;52.75;97287.09;10243910;28;20515;-52
2023/06/09 12:56:05;;;;;;;6.13;4.35;;;;;;;28.15;48.47;97274.31;10244940;28;20121;-50
2023/06/09 13:01:04;;;;;;;5.88;4.55;;;;;;;28.42;46.14;97271.22;10244606;28;20497;-51
2023/06/09 13:06:03;;;;;;;7.78;4.40;;;;;;;28.83;46.29;97272.34;10242977;28;20502;-52
2023/06/09 13:11:02;;;;;;;9.60;4.63;;;;;;;29.20;44.96;97271.06;10243742;28;20161;-51
2023/06/09 13:16:01;;;;;;;7.90;4.57;;;;;;;29.67;44.98;97272.38;10244044;28;21171;-48
2023/06/09 13:21:00;;;;;;;9.27;4.50;;;;;;;29.82;42.00;97261.31;10243564;28;20501;-50
2023/06/09 13:25:59;;;;;;;6.32;4.07;;;;;;;29.27;40.13;97265.13;10243249;28;20128;-52
2023/06/09 13:30:58;;;;;;;5.93;3.60;;;;;;;29.15;40.04;97258.09;10244014;28;20137;-52
2023/06/09 13:35:57;;;;;;;6.78;4.22;;;;;;;28.21;40.05;97257.78;10243326;28;20052;-51
2023/06/09 13:40:56;;;;;;;8.38;4.35;;;;;;;27.69;41.85;97277.91;10243621;28;20042;-49
2023/06/09 13:45:55;;;;;;;5.55;3.80;;;;;;;27.16;39.08;97264.22;10245994;28;20066;-52
2023/06/09 13:50:54;;;;;;;7.30;4.15;;;;;;;27.05;40.80;97262.38;10245890;28;20432;-50
2023/06/09 13:55:53;;;;;;;7.97;4.22;;;;;;;26.81;41.82;97258.84;10246408;28;20494;-51
2023/06/09 14:00:52;;;;;;;9.55;4.70;;;;;;;26.86;41.73;97264.72;10245830;28;20038;-51
2023/06/09 14:05:51;;;;;;;6.38;4.20;;;;;;;27.07;40.07;97255.09;10245664;28;21195;-50
2023/06/09 14:10:50;;;;;;;8.98;4.20;;;;;;;27.50;42.18;97235.00;10245297;28;20042;-52
2023/06/09 14:15:49;;;;;;;7.95;4.47;;;;;;;27.71;39.62;97221.81;10246428;28;20042;-52
2023/06/09 14:20:47;;;;;;;4.57;3.63;;;;;;;27.49;39.54;97212.81;10250910;28;20022;-51
2023/06/09 14:25:46;;;;;;;5.22;3.95;;;;;;;27.39;39.25;97226.00;10252690;28;20117;-49
2023/06/09 14:30:46;;;;;;;8.88;4.55;;;;;;;27.36;40.43;97220.91;10252339;28;20050;-49
2023/06/09 14:35:46;;;;;;;8.07;4.13;;;;;;;27.45;39.48;97216.69;10252344;28;20494;-51
2023/06/09 14:40:45;;;;;;;8.10;4.50;;;;;;;27.47;39.27;97227.22;10253451;28;20066;-51
2023/06/09 14:45:43;;;;;;;11.00;4.45;;;;;;;27.72;38.49;97218.16;10248247;28;20132;-52
2023/06/09 14:50:46;;;;;;;11.20;4.78;;;;;;;27.95;39.07;97219.00;10248315;28;20397;-52
2023/06/09 14:55:47;;;;;;;6.95;4.20;;;;;;;28.23;37.85;97213.16;10248857;28;20072;-52
2023/06/09 15:00:47;;;;;;;5.70;3.88;;;;;;;28.40;39.10;97205.59;10247840;28;20581;-52
2023/06/09 15:05:46;;;;;;;6.22;4.00;;;;;;;28.42;37.16;97201.81;10248559;28;20066;-51
2023/06/09 15:10:45;;;;;;;6.38;3.72;;;;;;;28.14;36.53;97202.38;10247793;28;20122;-48
2023/06/09 15:15:44;;;;;;;6.40;4.13;;;;;;;27.62;37.63;97213.56;10244809;28;20530;-51
2023/06/09 15:20:43;;;;;;;7.00;4.25;;;;;;;27.41;37.50;97197.41;10245082;28;20161;-50
2023/06/09 15:25:44;;;;;;;7.72;4.30;;;;;;;27.40;37.85;97177.06;10246807;28;20077;-51
2023/06/09 15:30:46;;;;;;;6.35;3.90;;;;;;;27.48;38.53;97183.66;10248656;28;20141;-51
2023/06/09 15:35:49;;;;;;;7.10;4.50;;;;;;;27.30;38.62;97181.41;10246577;28;20133;-52
2023/06/09 15:40:50;;;;;;;9.38;4.10;;;;;;;27.38;38.26;97188.81;10247025;28;20072;-51
2023/06/09 15:45:54;;;;;;;7.85;4.20;;;;;;;26.77;38.96;97200.53;10246043;28;20119;-51
2023/06/09 15:50:53;;;;;;;5.85;3.88;;;;;;;26.28;39.07;97204.19;10245638;28;20588;-50
2023/06/09 15:55:52;;;;;;;8.00;4.20;;;;;;;25.84;39.59;97202.09;10246461;28;20521;-51
2023/06/09 16:00:51;;;;;;;7.50;4.32;;;;;;;25.44;40.33;97207.53;10232599;28;20130;-49
2023/06/09 16:05:50;;;;;;;5.75;3.45;;;;;;;25.00;42.18;97214.09;10242438;28;20057;-52
2023/06/09 16:10:50;;;;;;;11.40;4.53;;;;;;;24.55;42.24;97197.66;10245945;28;20506;-52
2023/06/09 16:15:50;;;;;;;6.28;3.40;;;;;;;24.43;42.76;97202.81;10245528;28;20117;-49
2023/06/09 16:20:49;;;;;;;7.85;4.13;;;;;;;24.38;43.75;97169.56;10243426;28;20105;-51
2023/06/09 16:25:48;;;;;;;9.07;4.72;;;;;;;24.67;44.99;97196.81;10244039;28;20068;-51
2023/06/09 16:30:47;;;;;;;10.18;4.43;;;;;;;24.86;44.50;97202.59;10239211;28;20034;-49
2023/06/09 16:35:46;;;;;;;10.80;5.28;;;;;;;25.00;44.54;97200.84;10243589;28;20030;-51
2023/06/09 16:40:45;;;;;;;10.05;4.85;;;;;;;24.90;44.91;97209.41;10240434;28;20480;-50
2023/06/09 16:45:44;;;;;;;13.90;6.50;;;;;;;25.02;45.87;97201.56;10240779;28;20180;-51
2023/06/09 16:50:43;;;;;;;10.40;5.88;;;;;;;25.11;46.92;97200.94;10244216;28;20077;-49
2023/06/09 16:55:42;;;;;;;12.60;6.13;;;;;;;25.26;48.24;97189.25;10252822;28;20022;-51
2023/06/09 17:00:41;;;;;;;9.27;4.95;;;;;;;25.52;48.30;97184.75;10243691;28;20175;-49
2023/06/09 17:05:40;;;;;;;11.15;5.20;;;;;;;25.67;48.34;97184.69;10243342;28;20117;-51
2023/06/09 17:10:39;;;;;;;10.57;5.30;;;;;;;25.77;48.31;97172.44;10243722;28;20042;-51
2023/06/09 17:15:38;;;;;;;8.07;5.20;;;;;;;25.52;47.66;97131.63;10243546;28;20035;-48
2023/06/09 17:20:37;;;;;;;8.52;5.15;;;;;;;25.54;45.21;97174.06;10243074;28;20170;-52
2023/06/09 17:25:36;;;;;;;9.25;5.00;;;;;;;25.11;45.08;97179.72;10243486;28;20520;-49
2023/06/09 17:30:36;;;;;;;8.88;5.13;;;;;;;24.53;49.32;97186.28;10242232;28;20129;-50
2023/06/09 17:35:34;;;;;;;11.20;5.57;;;;;;;24.42;51.15;97174.56;10244056;28;20105;-51
2023/06/09 17:40:33;;;;;;;12.63;5.45;;;;;;;24.12;53.50;97184.50;10242435;28;20037;-51
2023/06/09 17:45:34;;;;;;;11.55;6.45;;;;;;;23.97;54.62;97186.34;10243504;28;20042;-52
2023/06/09 17:50:33;;;;;;;17.33;8.13;;;;;;;23.70;56.48;97191.59;10242048;28;20125;-51
2023/06/09 17:55:32;;;;;;;10.90;7.13;;;;;;;23.52;57.60;97209.50;10248493;28;20117;-52
2023/06/09 18:00:31;;;;;;;12.48;7.38;;;;;;;23.14;59.41;97217.94;10250516;28;20028;-48
2023/06/09 18:05:30;;;;;;;11.00;7.22;;;;;;;22.83;60.27;97218.94;10250141;28;20076;-50
2023/06/09 18:10:29;;;;;;;14.05;7.40;;;;;;;22.50;60.72;97222.56;10248273;28;20038;-50
2023/06/09 18:15:28;;;;;;;12.15;7.85;;;;;;;22.28;61.73;97231.75;10250456;28;20741;-51
2023/06/09 18:20:27;;;;;;;15.00;7.85;;;;;;;21.96;63.05;97238.78;10249009;28;20448;-51
2023/06/09 18:25:26;;;;;;;11.38;6.03;;;;;;;21.23;65.25;97238.31;10249986;28;20040;-50
2023/06/09 18:30:25;;;;;;;10.40;6.65;;;;;;;20.77;67.26;97246.75;10248292;28;20107;-52
2023/06/09 18:35:24;;;;;;;15.93;6.90;;;;;;;20.73;67.37;97249.63;10249419;28;20038;-49
2023/06/09 18:40:23;;;;;;;8.80;5.68;;;;;;;20.39;67.35;97199.41;10248882;28;20469;-52
2023/06/09 18:45:24;;;;;;;10.15;6.03;;;;;;;20.38;67.74;97225.84;10251440;28;20092;-50
2023/06/09 18:50:23;;;;;;;12.15;6.82;;;;;;;20.20;68.13;97215.25;10249173;28;20130;-52
2023/06/09 18:55:22;;;;;;;11.60;6.05;;;;;;;20.29;67.27;97262.25;10252142;28;20034;-49
2023/06/09 19:00:21;;;;;;;10.30;6.30;;;;;;;20.10;66.80;97263.22;10251256;28;20073;-50
2023/06/09 19:05:20;;;;;;;10.48;5.68;;;;;;;19.95;66.91;97262.97;10250403;28;20038;-51
2023/06/09 19:10:19;;;;;;;10.70;6.43;;;;;;;19.79;67.63;97272.50;10251433;28;20105;-51
2023/06/09 19:15:18;;;;;;;10.13;7.07;;;;;;;19.63;69.41;97272.38;10252195;28;20069;-52
2023/06/09 19:20:17;;;;;;;11.82;7.15;;;;;;;19.50;70.86;97282.56;10250986;28;20112;-49
2023/06/09 19:25:16;;;;;;;13.38;8.23;;;;;;;19.29;72.61;97273.81;10250511;28;20046;-48
2023/06/09 19:30:15;;;;;;;14.15;9.35;;;;;;;18.54;74.52;97175.34;10249504;28;20034;-51
2023/06/09 19:35:15;;;;;;;13.48;8.35;;;;;;;19.01;76.22;97288.16;10253028;28;20158;-50
2023/06/09 19:40:14;;;;;;;13.98;8.38;;;;;;;18.90;76.61;97292.16;10250271;28;20477;-48
2023/06/09 19:45:13;;;;;;;11.18;7.68;;;;;;;18.79;77.15;97292.63;10245928;28;20069;-51
2023/06/09 19:50:12;;;;;;;12.55;7.28;;;;;;;18.66;77.62;97297.47;10242208;28;20465;-51
2023/06/09 19:55:11;;;;;;;11.68;7.55;;;;;;;18.69;77.79;97309.69;10246588;28;20031;-51
2023/06/09 20:00:10;;;;;;;10.65;7.20;;;;;;;18.60;77.59;97301.22;10246099;28;20030;-50
2023/06/09 20:05:12;;;;;;;10.40;7.10;;;;;;;18.46;77.66;97293.06;10246274;28;20447;-51
2023/06/09 20:10:11;;;;;;;11.32;6.70;;;;;;;18.13;77.39;97254.06;10245687;28;20069;-52
2023/06/09 20:15:10;;;;;;;8.45;5.82;;;;;;;18.36;77.04;97291.69;10245103;28;20113;-52
2023/06/09 20:20:10;;;;;;;8.75;6.70;;;;;;;18.39;76.32;97304.72;10245755;28;20046;-52
2023/06/09 20:25:09;;;;;;;11.68;6.75;;;;;;;18.30;76.48;97298.06;10245376;28;20238;-51
2023/06/09 20:30:08;;;;;;;13.60;6.75;;;;;;;18.23;76.89;97291.34;10244577;28;20137;-51
2023/06/09 20:35:08;;;;;;;14.48;7.68;;;;;;;18.22;77.20;97289.59;10244893;28;20049;-51
2023/06/09 20:40:07;;;;;;;12.05;8.50;;;;;;;18.25;77.46;97293.91;10244989;28;20582;-51
2023/06/09 20:45:07;;;;;;;13.52;8.32;;;;;;;18.14;78.54;97296.94;10244951;28;20137;-49
2023/06/09 20:50:06;;;;;;;13.32;7.38;;;;;;;18.11;78.51;97303.16;10242833;28;20117;-49
2023/06/09 20:55:06;;;;;;;15.55;7.78;;;;;;;17.79;78.60;97269.41;10244529;28;20129;-49
2023/06/09 21:00:05;;;;;;;11.15;7.35;;;;;;;17.59;79.47;97268.38;10244486;28;20480;-52
2023/06/09 21:05:05;;;;;;;11.73;7.28;;;;;;;17.67;79.90;97308.28;10243678;28;20105;-51
2023/06/09 21:10:04;;;;;;;12.52;7.60;;;;;;;17.54;80.68;97309.63;10243223;28;20121;-49
2023/06/09 21:15:03;;;;;;;11.80;7.10;;;;;;;17.49;80.78;97306.31;10243338;28;20072;-49
2023/06/09 21:20:11;;;;;;;14.30;8.45;;;;;;;17.40;82.10;97314.50;10243012;28;20058;-50
2023/06/09 21:25:14;;;;;;;13.00;8.35;;;;;;;17.11;81.56;97303.28;10243192;28;20122;-50
2023/06/09 21:30:13;;;;;;;14.57;9.98;;;;;;;17.05;81.85;97303.47;10247503;28;20130;-51
2023/06/09 21:35:12;;;;;;;13.68;9.60;;;;;;;17.04;82.17;97304.41;10252119;28;20066;-50
2023/06/09 21:40:11;;;;;;;16.85;9.98;;;;;;;17.04;82.10;97312.25;10251428;28;20065;-48
2023/06/09 21:45:11;;;;;;;17.17;9.80;;;;;;;16.75;82.45;97256.44;10250929;28;20536;-48
2023/06/09 21:50:10;;;;;;;19.13;9.07;;;;;;;16.96;83.54;97309.91;10250020;28;20149;-50
2023/06/09 21:55:09;;;;;;;14.55;8.82;;;;;;;16.92;83.20;97297.81;10250650;28;20084;-51
2023/06/09 22:00:12;;;;;;;15.00;8.05;;;;;;;16.64;83.40;97240.22;10250648;28;20062;-50
2023/06/09 22:05:12;;;;;;;11.50;7.68;;;;;;;16.90;83.21;97284.75;10250522;28;20062;-48
2023/06/09 22:10:11;;;;;;;10.13;6.88;;;;;;;16.83;83.10;97283.25;10248875;28;20490;-51
2023/06/09 22:15:12;;;;;;;12.15;8.32;;;;;;;16.88;82.92;97272.59;10249541;28;20509;-49
2023/06/09 22:20:16;;;;;;;12.82;8.07;;;;;;;16.74;83.63;97254.69;10249622;28;20145;-52
2023/06/09 22:25:15;;;;;;;18.23;11.40;;;;;;;16.80;84.12;97275.47;10246218;28;20137;-50
2023/06/09 22:30:14;;;;;;;15.68;11.73;;;;;;;16.70;84.72;97271.44;10246135;28;20095;-51
2023/06/09 22:35:13;;;;;;;17.77;12.38;;;;;;;16.72;84.64;97264.38;10247933;28;20066;-50
2023/06/09 22:40:13;;;;;;;13.45;8.73;;;;;;;16.56;85.73;97264.03;10250016;28;20478;-49
2023/06/09 22:45:12;;;;;;;11.15;7.70;;;;;;;16.55;85.71;97262.31;10248661;28;20070;-50
2023/06/09 22:50:13;;;;;;;15.68;9.35;;;;;;;16.60;85.16;97255.16;10247727;28;20093;-51
2023/06/09 22:55:14;;;;;;;13.48;9.00;;;;;;;16.50;85.23;97253.75;10248846;28;20166;-49
2023/06/09 23:00:13;;;;;;;13.82;9.25;;;;;;;16.48;84.82;97251.19;10248448;28;20242;-50
2023/06/09 23:05:15;;;;;;;17.77;11.35;;;;;;;16.48;85.05;97252.94;10248528;28;20077;-48
2023/06/09 23:10:14;;;;;;;16.20;10.93;;;;;;;16.48;85.47;97258.19;10247170;28;20125;-49